Time;durP1;ratioP1;P1;durP2;ratioP2;P2;SDS_P1;SDS_P2;PMS_P1;PMS_P2;Temp;Humidity;BMP_temperature;BMP_pressure;BME280_temperature;BME280_humidity;BME280_pressure;Samples;Min_cycle;Max_cycle;Signal;HPM_P1;HPM_P2
2022/11/02 00:00:52;;;;;;;;;;;7.90;99.90;;;;;;5103129;28;19920;-83
2022/11/02 00:03:18;;;;;;;;;;;7.90;99.90;;;;;;5093481;28;19972;-83
2022/11/02 00:05:44;;;;;;;;;;;7.90;99.90;;;;;;5090907;28;19927;-82
2022/11/02 00:08:09;;;;;;;;;;;7.90;99.90;;;;;;5101153;28;19965;-82
2022/11/02 00:10:34;;;;;;;;;;;7.80;99.90;;;;;;5090600;28;19923;-82
2022/11/02 00:13:00;;;;;;;;;;;7.80;99.90;;;;;;5096033;28;19912;-82
2022/11/02 00:15:27;;;;;;;;;;;7.80;99.90;;;;;;5102223;28;19923;-82
2022/11/02 00:17:54;;;;;;;;;;;7.70;99.90;;;;;;5100825;28;20386;-82
2022/11/02 00:20:20;;;;;;;;;;;7.60;99.90;;;;;;5088045;28;19916;-83
2022/11/02 00:22:46;;;;;;;;;;;7.80;99.90;;;;;;5104177;28;19912;-82
2022/11/02 00:25:13;;;;;;;;;;;7.80;99.90;;;;;;5095287;28;19919;-82
2022/11/02 00:27:39;;;;;;;;;;;7.90;99.90;;;;;;5079947;28;20405;-82
2022/11/02 00:30:05;;;;;;;;;;;7.90;99.90;;;;;;5100940;28;20054;-83
2022/11/02 00:32:30;;;;;;;;;;;8.00;99.90;;;;;;5098509;28;20015;-82
2022/11/02 00:34:56;;;;;;;;;;;8.00;99.90;;;;;;5100100;28;20353;-82
2022/11/02 00:37:22;;;;;;;;;;;8.00;99.90;;;;;;5079870;28;19917;-81
2022/11/02 00:39:47;;;;;;;;;;;8.10;99.90;;;;;;5103715;28;19943;-82
2022/11/02 00:42:12;;;;;;;;;;;8.20;99.90;;;;;;5095642;28;19950;-82
2022/11/02 00:44:38;;;;;;;;;;;8.10;99.90;;;;;;5086277;28;19957;-82
2022/11/02 00:47:03;;;;;;;;;;;8.10;99.90;;;;;;5089477;28;20345;-82
2022/11/02 00:49:29;;;;;;;;;;;8.20;99.90;;;;;;5099525;28;19920;-83
2022/11/02 00:51:55;;;;;;;;;;;8.20;99.90;;;;;;5104010;28;19935;-82
2022/11/02 00:54:20;;;;;;;;;;;8.30;99.90;;;;;;5097113;28;19916;-82
2022/11/02 00:56:46;;;;;;;;;;;8.20;99.90;;;;;;5090195;28;19969;-82
2022/11/02 00:59:11;;;;;;;;;;;8.20;99.90;;;;;;5101890;28;19947;-82
2022/11/02 01:01:37;;;;;;;;;;;8.30;99.90;;;;;;5095821;28;19920;-82
2022/11/02 01:04:03;;;;;;;;;;;8.40;99.90;;;;;;5104447;28;19963;-82
2022/11/02 01:06:28;;;;;;;;;;;8.40;99.90;;;;;;5099083;28;20573;-82
2022/11/02 01:08:54;;;;;;;;;;;8.30;99.90;;;;;;5094439;28;19940;-82
2022/11/02 01:11:20;;;;;;;;;;;8.30;99.90;;;;;;5101409;28;19926;-82
2022/11/02 01:13:46;;;;;;;;;;;8.60;99.90;;;;;;5100541;28;19998;-82
2022/11/02 01:16:12;;;;;;;;;;;8.80;99.90;;;;;;5084727;28;20010;-82
2022/11/02 01:18:38;;;;;;;;;;;8.90;99.90;;;;;;5091101;28;20386;-82
2022/11/02 01:21:04;;;;;;;;;;;8.80;99.90;;;;;;5093085;28;19995;-82
2022/11/02 01:23:31;;;;;;;;;;;8.70;99.90;;;;;;5101369;28;20047;-83
2022/11/02 01:25:56;;;;;;;;;;;8.80;99.90;;;;;;5094802;28;19955;-82
2022/11/02 01:28:22;;;;;;;;;;;8.80;99.90;;;;;;5096327;28;19947;-82
2022/11/02 01:30:47;;;;;;;;;;;8.80;99.90;;;;;;5095679;28;19931;-82
2022/11/02 01:33:13;;;;;;;;;;;8.70;99.90;;;;;;5078963;28;19920;-82
2022/11/02 01:35:38;;;;;;;;;;;8.70;99.90;;;;;;5093778;28;19916;-82
2022/11/02 01:38:04;;;;;;;;;;;8.70;99.90;;;;;;5097443;28;19924;-82
2022/11/02 01:40:39;;;;;;;;;;;8.70;99.90;;;;;;5074881;28;19927;-82
2022/11/02 01:43:23;;;;;;;;;;;8.60;99.90;;;;;;5095660;28;20130;-82
2022/11/02 01:45:54;;;;;;;;;;;8.60;99.90;;;;;;5100257;28;19924;-82
2022/11/02 01:48:21;;;;;;;;;;;8.70;99.90;;;;;;5088415;28;19923;-82
2022/11/02 01:50:47;;;;;;;;;;;8.60;99.90;;;;;;5090986;28;19920;-82
2022/11/02 01:53:13;;;;;;;;;;;8.70;99.90;;;;;;5106599;28;19925;-82
2022/11/02 01:55:38;;;;;;;;;;;8.60;99.90;;;;;;5089904;28;19924;-82
2022/11/02 01:58:06;;;;;;;;;;;8.70;99.90;;;;;;5094939;28;19921;-82
2022/11/02 02:00:32;;;;;;;;;;;8.90;99.90;;;;;;5098655;28;19912;-83
2022/11/02 02:03:03;;;;;;;;;;;8.70;99.90;;;;;;5096948;28;19941;-82
2022/11/02 02:05:29;;;;;;;;;;;8.70;99.90;;;;;;5093310;28;19938;-82
2022/11/02 02:07:55;;;;;;;;;;;8.70;99.90;;;;;;5100482;28;19925;-82
2022/11/02 02:10:21;;;;;;;;;;;8.60;99.90;;;;;;5097361;28;19969;-82
2022/11/02 02:12:46;;;;;;;;;;;8.60;99.90;;;;;;5095046;28;20007;-82
2022/11/02 02:15:12;;;;;;;;;;;8.50;99.90;;;;;;5092951;28;20011;-82
2022/11/02 02:17:41;;;;;;;;;;;8.40;99.90;;;;;;5100996;28;20447;-82
2022/11/02 02:20:10;;;;;;;;;;;8.30;99.90;;;;;;5095836;28;19927;-82
2022/11/02 02:22:54;;;;;;;;;;;8.30;99.90;;;;;;5093642;28;19926;-82
2022/11/02 02:25:38;;;;;;;;;;;8.20;99.90;;;;;;5098840;28;19920;-82
2022/11/02 02:28:23;;;;;;;;;;;8.10;99.90;;;;;;5097835;28;19916;-82
2022/11/02 02:30:50;;;;;;;;;;;8.00;99.90;;;;;;5101160;28;19954;-82
2022/11/02 02:33:23;;;;;;;;;;;7.90;99.90;;;;;;5102160;28;20011;-82
2022/11/02 02:35:52;;;;;;;;;;;7.90;99.90;;;;;;5091121;28;19912;-82
2022/11/02 02:38:26;;;;;;;;;;;7.80;99.90;;;;;;5104139;28;19964;-83
2022/11/02 02:41:02;;;;;;;;;;;7.80;99.90;;;;;;5100053;28;19930;-82
2022/11/02 02:43:35;;;;;;;;;;;7.70;99.90;;;;;;5102445;28;19915;-82
2022/11/02 02:46:10;;;;;;;;;;;7.60;99.90;;;;;;5099154;28;19924;-83
2022/11/02 02:48:37;;;;;;;;;;;7.60;99.90;;;;;;5097068;28;20015;-82
2022/11/02 02:51:05;;;;;;;;;;;7.60;99.90;;;;;;5101293;28;19916;-82
2022/11/02 02:53:47;;;;;;;;;;;7.60;99.90;;;;;;5100417;28;20007;-82
2022/11/02 02:56:14;;;;;;;;;;;7.60;99.90;;;;;;5092950;28;20403;-82
2022/11/02 02:59:18;;;;;;;;;;;7.80;99.90;;;;;;5104950;28;19920;-82
2022/11/02 03:01:44;;;;;;;;;;;7.80;99.90;;;;;;5053474;28;19999;-82
2022/11/02 03:04:12;;;;;;;;;;;7.90;99.90;;;;;;5049859;28;19917;-82
2022/11/02 03:06:39;;;;;;;;;;;8.00;99.90;;;;;;5074331;28;19973;-82
2022/11/02 03:09:11;;;;;;;;;;;8.00;99.90;;;;;;5096906;28;19924;-82
2022/11/02 03:11:44;;;;;;;;;;;8.00;99.90;;;;;;5094108;28;19924;-82
2022/11/02 03:14:10;;;;;;;;;;;7.90;99.90;;;;;;5107416;28;19916;-82
2022/11/02 03:16:35;;;;;;;;;;;7.90;99.90;;;;;;5099308;28;19961;-82
2022/11/02 03:19:08;;;;;;;;;;;7.90;99.90;;;;;;5096071;28;20691;-82
2022/11/02 03:21:43;;;;;;;;;;;7.90;99.90;;;;;;5105740;28;19916;-82
2022/11/02 03:24:27;;;;;;;;;;;7.90;99.90;;;;;;5093970;28;20619;-82
2022/11/02 03:27:02;;;;;;;;;;;7.80;99.90;;;;;;5095518;28;19922;-82
2022/11/02 03:29:31;;;;;;;;;;;7.80;99.90;;;;;;5105480;28;19932;-80
2022/11/02 03:32:03;;;;;;;;;;;7.90;99.90;;;;;;5098994;28;20364;-80
2022/11/02 03:34:49;;;;;;;;;;;8.00;99.90;;;;;;5091840;28;19916;-80
2022/11/02 03:37:21;;;;;;;;;;;8.10;99.90;;;;;;5098920;28;19945;-80
2022/11/02 03:39:49;;;;;;;;;;;8.10;99.90;;;;;;5101055;28;19998;-80
2022/11/02 03:42:17;;;;;;;;;;;8.20;99.90;;;;;;5106581;28;20187;-80
2022/11/02 03:44:43;;;;;;;;;;;8.30;99.90;;;;;;5112125;28;19943;-80
2022/11/02 03:47:11;;;;;;;;;;;8.30;99.90;;;;;;5097638;28;20667;-80
2022/11/02 03:49:38;;;;;;;;;;;8.40;99.90;;;;;;5091947;28;19937;-80
2022/11/02 03:52:06;;;;;;;;;;;8.40;99.90;;;;;;5104174;28;20693;-80
2022/11/02 03:54:44;;;;;;;;;;;8.40;99.90;;;;;;5090890;28;19916;-80
2022/11/02 03:57:13;;;;;;;;;;;8.40;99.90;;;;;;5100517;28;19938;-80
2022/11/02 03:59:38;;;;;;;;;;;8.40;99.90;;;;;;5102153;28;19960;-80
2022/11/02 04:02:08;;;;;;;;;;;8.30;99.90;;;;;;5090528;28;20100;-80
2022/11/02 04:04:33;;;;;;;;;;;8.30;99.90;;;;;;5091977;28;19935;-80
2022/11/02 04:06:59;;;;;;;;;;;8.40;99.90;;;;;;5103088;28;20414;-80
2022/11/02 04:09:25;;;;;;;;;;;8.40;99.90;;;;;;5096946;28;19924;-80
2022/11/02 04:14:39;;;;;;;;;;;8.30;99.90;;;;;;5063553;28;19920;-80
2022/11/02 04:19:49;;;;;;;;;;;8.30;99.90;;;;;;5089590;28;20016;-80
2022/11/02 04:25:14;;;;;;;;;;;8.40;99.90;;;;;;5099566;28;19985;-80
2022/11/02 04:27:40;;;;;;;;;;;8.30;99.90;;;;;;5100556;28;19931;-80
2022/11/02 04:30:06;;;;;;;;;;;8.40;99.90;;;;;;5086852;28;19946;-80
2022/11/02 04:35:22;;;;;;;;;;;8.30;99.90;;;;;;5095093;28;19919;-80
2022/11/02 04:40:32;;;;;;;;;;;8.20;99.90;;;;;;5101507;27;19973;-80
2022/11/02 04:42:57;;;;;;;;;;;8.20;99.90;;;;;;5099212;28;19919;-81
2022/11/02 04:45:23;;;;;;;;;;;8.20;99.90;;;;;;5103160;28;20402;-82
2022/11/02 04:47:49;;;;;;;;;;;8.20;99.90;;;;;;5094937;28;20346;-82
2022/11/02 04:50:14;;;;;;;;;;;8.20;99.90;;;;;;5094212;28;19912;-82
2022/11/02 04:52:40;;;;;;;;;;;8.30;99.90;;;;;;5097215;28;19920;-82
2022/11/02 04:55:06;;;;;;;;;;;8.30;99.90;;;;;;5113439;28;19920;-82
2022/11/02 04:57:31;;;;;;;;;;;8.30;99.90;;;;;;5076988;28;20461;-82
2022/11/02 04:59:57;;;;;;;;;;;8.40;99.90;;;;;;5101483;28;19920;-82
2022/11/02 05:02:22;;;;;;;;;;;8.50;99.90;;;;;;5093878;28;20585;-82
2022/11/02 05:04:47;;;;;;;;;;;8.60;99.90;;;;;;5097248;28;19947;-81
2022/11/02 05:07:13;;;;;;;;;;;8.70;99.90;;;;;;5104096;28;19916;-83
2022/11/02 05:09:41;;;;;;;;;;;8.60;99.90;;;;;;5095204;28;19924;-82
2022/11/02 05:12:06;;;;;;;;;;;8.60;99.90;;;;;;5085334;28;20383;-82
2022/11/02 05:14:32;;;;;;;;;;;8.50;99.90;;;;;;5081491;28;19927;-82
2022/11/02 05:16:57;;;;;;;;;;;8.60;99.90;;;;;;5096856;28;20010;-82
2022/11/02 05:19:23;;;;;;;;;;;8.50;99.90;;;;;;5094994;28;19916;-82
2022/11/02 05:21:48;;;;;;;;;;;8.60;99.90;;;;;;5099121;28;20371;-82
2022/11/02 05:24:14;;;;;;;;;;;8.60;99.90;;;;;;5097199;28;19926;-82
2022/11/02 05:26:39;;;;;;;;;;;8.50;99.90;;;;;;5095429;28;20408;-82
2022/11/02 05:29:05;;;;;;;;;;;8.50;99.90;;;;;;5105540;28;20454;-82
2022/11/02 05:31:31;;;;;;;;;;;8.60;99.90;;;;;;5097492;28;19924;-82
2022/11/02 05:33:56;;;;;;;;;;;8.70;99.90;;;;;;5075305;28;19919;-82
2022/11/02 05:36:22;;;;;;;;;;;8.60;99.90;;;;;;5103200;28;19939;-82
2022/11/02 05:38:50;;;;;;;;;;;8.60;99.90;;;;;;5097992;28;20402;-82
2022/11/02 05:41:16;;;;;;;;;;;8.50;99.90;;;;;;5086779;28;19916;-82
2022/11/02 05:43:41;;;;;;;;;;;8.50;99.90;;;;;;5103875;28;19922;-82
2022/11/02 05:46:07;;;;;;;;;;;8.50;99.90;;;;;;5078719;28;19981;-82
2022/11/02 05:48:33;;;;;;;;;;;8.40;99.90;;;;;;5107441;28;19923;-83
2022/11/02 05:50:59;;;;;;;;;;;8.30;99.90;;;;;;5102142;28;19928;-82
2022/11/02 05:53:25;;;;;;;;;;;8.40;99.90;;;;;;5094608;28;19912;-82
2022/11/02 05:55:51;;;;;;;;;;;8.40;99.90;;;;;;5093903;28;19920;-82
2022/11/02 05:58:16;;;;;;;;;;;8.50;99.90;;;;;;5103511;28;19919;-82
2022/11/02 06:00:42;;;;;;;;;;;8.60;99.90;;;;;;5093440;28;20374;-82
2022/11/02 06:03:07;;;;;;;;;;;8.70;99.90;;;;;;5078015;28;19920;-82
2022/11/02 06:05:33;;;;;;;;;;;8.80;99.90;;;;;;5103416;28;20367;-82
2022/11/02 06:07:59;;;;;;;;;;;8.80;99.90;;;;;;5101893;28;20477;-82
2022/11/02 06:10:26;;;;;;;;;;;8.90;99.90;;;;;;5098699;28;19919;-82
2022/11/02 06:12:58;;;;;;;;;;;8.90;99.90;;;;;;5093578;28;19927;-81
2022/11/02 06:15:24;;;;;;;;;;;9.00;99.90;;;;;;5092578;28;20026;-82
2022/11/02 06:17:50;;;;;;;;;;;9.00;99.90;;;;;;5095661;28;20049;-82
2022/11/02 06:20:16;;;;;;;;;;;9.10;99.90;;;;;;5102213;28;20393;-81
2022/11/02 06:22:41;;;;;;;;;;;9.10;99.90;;;;;;5104112;28;19939;-82
2022/11/02 06:25:07;;;;;;;;;;;9.20;99.90;;;;;;5098781;28;20586;-81
2022/11/02 06:27:33;;;;;;;;;;;9.20;99.90;;;;;;5101008;28;19912;-82
2022/11/02 06:29:58;;;;;;;;;;;9.10;99.90;;;;;;5104523;28;19948;-82
2022/11/02 06:32:24;;;;;;;;;;;9.20;99.90;;;;;;5096794;28;19923;-81
2022/11/02 06:34:49;;;;;;;;;;;9.20;99.90;;;;;;5081416;28;19926;-82
2022/11/02 06:37:15;;;;;;;;;;;9.30;99.90;;;;;;5094782;28;20310;-82
2022/11/02 06:39:40;;;;;;;;;;;9.40;99.90;;;;;;5096807;28;19916;-81
2022/11/02 06:42:06;;;;;;;;;;;9.40;99.90;;;;;;5111406;27;20285;-82
2022/11/02 06:44:31;;;;;;;;;;;9.40;99.90;;;;;;5090746;28;20811;-82
2022/11/02 06:46:57;;;;;;;;;;;9.40;99.90;;;;;;5095878;28;19924;-82
2022/11/02 06:49:22;;;;;;;;;;;9.40;99.90;;;;;;5091122;28;19923;-82
2022/11/02 06:51:51;;;;;;;;;;;9.40;99.90;;;;;;5092612;28;20317;-82
2022/11/02 06:54:17;;;;;;;;;;;9.40;99.90;;;;;;5098237;28;19912;-85
2022/11/02 06:56:42;;;;;;;;;;;9.30;99.90;;;;;;5095722;28;20011;-83
2022/11/02 06:59:08;;;;;;;;;;;9.20;99.90;;;;;;5090584;28;19916;-82
2022/11/02 07:01:34;;;;;;;;;;;9.30;99.90;;;;;;5093904;28;19985;-82
2022/11/02 07:04:00;;;;;;;;;;;9.30;99.90;;;;;;5095195;28;19911;-82
2022/11/02 07:06:25;;;;;;;;;;;9.30;99.90;;;;;;5101852;28;20007;-82
2022/11/02 07:08:51;;;;;;;;;;;9.30;99.90;;;;;;5092888;28;20134;-83
2022/11/02 07:11:16;;;;;;;;;;;9.30;99.90;;;;;;5091974;28;19924;-82
2022/11/02 07:13:42;;;;;;;;;;;9.40;99.90;;;;;;5106507;28;19959;-83
2022/11/02 07:16:07;;;;;;;;;;;9.50;99.90;;;;;;5097232;28;19951;-83
2022/11/02 07:18:33;;;;;;;;;;;9.50;99.90;;;;;;5095011;28;20310;-83
2022/11/02 07:20:58;;;;;;;;;;;9.60;99.90;;;;;;5093388;28;20374;-83
2022/11/02 07:23:24;;;;;;;;;;;9.60;99.90;;;;;;5098798;28;20363;-82
2022/11/02 07:25:50;;;;;;;;;;;9.60;99.90;;;;;;5095166;28;19912;-83
2022/11/02 07:28:15;;;;;;;;;;;9.70;99.90;;;;;;5089658;28;19980;-83
2022/11/02 07:30:41;;;;;;;;;;;9.80;99.90;;;;;;5092202;28;20307;-83
2022/11/02 07:33:06;;;;;;;;;;;9.80;99.90;;;;;;5094374;28;19922;-83
2022/11/02 07:35:33;;;;;;;;;;;9.80;99.90;;;;;;5098030;28;20550;-82
2022/11/02 07:38:00;;;;;;;;;;;9.90;99.90;;;;;;5105171;28;19961;-83
2022/11/02 07:40:26;;;;;;;;;;;10.00;99.90;;;;;;5091501;28;19952;-83
2022/11/02 07:42:52;;;;;;;;;;;10.20;99.90;;;;;;5098892;28;19920;-82
2022/11/02 07:45:19;;;;;;;;;;;10.30;99.90;;;;;;5078326;28;19928;-80
2022/11/02 07:47:44;;;;;;;;;;;10.40;99.90;;;;;;5095351;28;19957;-80
2022/11/02 07:50:11;;;;;;;;;;;10.50;99.90;;;;;;5097919;28;20338;-80
2022/11/02 07:52:46;;;;;;;;;;;10.50;99.90;;;;;;5098269;28;20003;-81
2022/11/02 07:55:13;;;;;;;;;;;10.60;99.90;;;;;;5079629;28;19916;-81
2022/11/02 07:57:39;;;;;;;;;;;10.60;99.90;;;;;;5102836;28;19916;-80
2022/11/02 08:00:05;;;;;;;;;;;10.70;99.90;;;;;;5103268;28;20330;-80
2022/11/02 08:02:30;;;;;;;;;;;10.90;99.90;;;;;;5084161;28;19916;-82
2022/11/02 08:04:56;;;;;;;;;;;11.00;99.90;;;;;;5111163;28;19912;-82
2022/11/02 08:07:21;;;;;;;;;;;11.00;99.90;;;;;;5117613;28;20046;-81
2022/11/02 08:09:47;;;;;;;;;;;11.00;99.90;;;;;;5104922;28;20667;-81
2022/11/02 08:12:12;;;;;;;;;;;11.00;99.90;;;;;;5095585;28;19920;-81
2022/11/02 08:14:37;;;;;;;;;;;11.10;99.90;;;;;;5101188;28;20371;-82
2022/11/02 08:17:03;;;;;;;;;;;11.10;99.90;;;;;;5095640;28;19920;-81
2022/11/02 08:19:29;;;;;;;;;;;11.20;99.90;;;;;;5095503;28;19920;-81
2022/11/02 08:21:55;;;;;;;;;;;11.30;99.90;;;;;;5102101;28;20523;-82
2022/11/02 08:24:20;;;;;;;;;;;11.30;99.90;;;;;;5097243;28;20042;-81
2022/11/02 08:26:46;;;;;;;;;;;11.30;99.90;;;;;;5100763;28;19922;-82
2022/11/02 08:29:11;;;;;;;;;;;11.30;99.90;;;;;;5103529;28;20388;-82
2022/11/02 08:31:37;;;;;;;;;;;11.10;99.90;;;;;;5097378;28;19920;-82
2022/11/02 08:34:02;;;;;;;;;;;11.00;99.90;;;;;;5078629;28;19916;-82
2022/11/02 08:36:28;;;;;;;;;;;10.90;99.90;;;;;;5107490;28;19919;-82
2022/11/02 08:38:53;;;;;;;;;;;11.00;99.90;;;;;;5099302;28;19983;-81
2022/11/02 08:41:19;;;;;;;;;;;11.00;99.90;;;;;;5083947;28;19938;-82
2022/11/02 08:43:44;;;;;;;;;;;11.10;99.90;;;;;;5096942;28;20014;-81
2022/11/02 08:46:10;;;;;;;;;;;11.20;99.90;;;;;;5073898;28;19930;-82
2022/11/02 08:48:35;;;;;;;;;;;11.30;99.90;;;;;;5079285;28;20376;-82
2022/11/02 08:51:01;;;;;;;;;;;11.50;99.90;;;;;;5086050;28;19927;-82
2022/11/02 08:53:27;;;;;;;;;;;11.60;99.90;;;;;;5080057;28;20008;-82
2022/11/02 08:55:55;;;;;;;;;;;11.70;99.90;;;;;;5089024;28;19923;-81
2022/11/02 08:58:20;;;;;;;;;;;11.80;99.90;;;;;;5095784;28;19927;-81
2022/11/02 09:00:46;;;;;;;;;;;11.90;99.90;;;;;;5102127;28;19919;-82
2022/11/02 09:03:13;;;;;;;;;;;12.20;99.90;;;;;;5095128;28;19938;-81
2022/11/02 09:05:40;;;;;;;;;;;12.40;99.90;;;;;;5100585;28;20271;-81
2022/11/02 09:08:07;;;;;;;;;;;12.40;99.90;;;;;;5089411;28;19920;-81
2022/11/02 09:10:34;;;;;;;;;;;12.50;99.90;;;;;;5085701;28;19987;-82
2022/11/02 09:13:00;;;;;;;;;;;12.50;99.90;;;;;;5099064;28;19981;-81
2022/11/02 09:15:26;;;;;;;;;;;12.90;99.90;;;;;;5096372;28;19916;-82
2022/11/02 09:17:52;;;;;;;;;;;12.90;99.90;;;;;;5090025;28;20344;-80
2022/11/02 09:20:18;;;;;;;;;;;12.90;99.90;;;;;;5114269;28;20009;-79
2022/11/02 09:22:44;;;;;;;;;;;13.00;99.90;;;;;;5087048;28;20044;-79
2022/11/02 09:25:10;;;;;;;;;;;13.00;99.90;;;;;;5092622;28;19945;-79
2022/11/02 09:27:35;;;;;;;;;;;13.20;99.90;;;;;;5088484;28;19920;-80
2022/11/02 09:30:03;;;;;;;;;;;13.30;99.20;;;;;;5091536;28;19947;-79
2022/11/02 09:32:32;;;;;;;;;;;13.50;99.90;;;;;;5095899;28;19978;-80
2022/11/02 09:35:07;;;;;;;;;;;13.80;99.90;;;;;;5106055;28;20447;-80
2022/11/02 09:37:33;;;;;;;;;;;13.70;97.00;;;;;;5102598;28;19919;-80
2022/11/02 09:39:59;;;;;;;;;;;13.70;98.50;;;;;;5102705;28;19920;-80
2022/11/02 09:42:41;;;;;;;;;;;13.70;98.90;;;;;;5096435;28;19912;-81
2022/11/02 09:45:11;;;;;;;;;;;13.70;97.20;;;;;;5102496;28;19920;-80
2022/11/02 09:47:48;;;;;;;;;;;13.40;96.50;;;;;;5097967;28;19965;-81
2022/11/02 09:50:17;;;;;;;;;;;13.30;97.10;;;;;;5095763;28;19922;-80
2022/11/02 09:52:45;;;;;;;;;;;13.30;95.60;;;;;;5094183;28;20014;-81
2022/11/02 09:55:14;;;;;;;;;;;13.30;92.70;;;;;;5100907;28;19920;-78
2022/11/02 09:57:42;;;;;;;;;;;13.30;94.30;;;;;;5094425;28;19977;-79
2022/11/02 10:00:17;;;;;;;;;;;13.40;97.00;;;;;;5099942;28;19916;-88
2022/11/02 10:03:05;;;;;;;;;;;13.60;96.70;;;;;;5094025;28;20390;-78
2022/11/02 10:05:35;;;;;;;;;;;13.40;95.50;;;;;;5106173;28;20010;-78
2022/11/02 10:08:06;;;;;;;;;;;13.60;94.60;;;;;;5100297;28;19915;-78
2022/11/02 10:10:37;;;;;;;;;;;13.60;91.90;;;;;;5095755;28;19942;-78
2022/11/02 10:13:10;;;;;;;;;;;13.80;89.50;;;;;;5107068;28;19941;-78
2022/11/02 10:15:40;;;;;;;;;;;13.60;84.60;;;;;;5101504;28;19927;-78
2022/11/02 10:18:12;;;;;;;;;;;13.80;84.60;;;;;;5096553;28;19920;-78
2022/11/02 10:20:40;;;;;;;;;;;13.80;82.40;;;;;;5104782;28;19935;-79
2022/11/02 10:23:10;;;;;;;;;;;13.70;83.70;;;;;;5103378;28;20615;-78
2022/11/02 10:25:36;;;;;;;;;;;13.70;83.30;;;;;;5099135;28;19924;-78
2022/11/02 10:28:03;;;;;;;;;;;13.70;83.50;;;;;;5104928;28;19922;-78
2022/11/02 10:30:30;;;;;;;;;;;13.90;85.10;;;;;;5097552;28;19919;-78
2022/11/02 10:32:56;;;;;;;;;;;14.00;82.40;;;;;;5098549;28;19930;-78
2022/11/02 10:35:26;;;;;;;;;;;13.90;83.70;;;;;;5104176;28;19916;-78
2022/11/02 10:37:57;;;;;;;;;;;14.00;84.50;;;;;;5092876;28;20295;-78
2022/11/02 10:40:43;;;;;;;;;;;14.10;82.20;;;;;;5091603;28;20397;-78
2022/11/02 10:43:23;;;;;;;;;;;13.90;79.60;;;;;;5044850;28;19922;-78
2022/11/02 10:45:51;;;;;;;;;;;14.00;80.40;;;;;;5101960;28;19924;-78
2022/11/02 10:48:28;;;;;;;;;;;14.10;80.40;;;;;;5093435;28;19921;-78
2022/11/02 10:50:54;;;;;;;;;;;14.00;78.50;;;;;;5096509;28;19916;-78
2022/11/02 10:53:20;;;;;;;;;;;13.80;79.60;;;;;;5098876;28;19912;-78
2022/11/02 10:55:57;;;;;;;;;;;13.90;78.30;;;;;;5100569;28;19916;-79
2022/11/02 10:58:25;;;;;;;;;;;14.10;76.00;;;;;;5101872;28;19911;-78
2022/11/02 11:01:02;;;;;;;;;;;14.10;76.30;;;;;;5101297;28;19992;-78
2022/11/02 11:03:28;;;;;;;;;;;14.10;77.10;;;;;;5095121;28;20011;-78
2022/11/02 11:05:54;;;;;;;;;;;14.20;77.40;;;;;;5104272;28;20002;-78
2022/11/02 11:08:32;;;;;;;;;;;14.30;79.70;;;;;;5097493;28;19958;-78
2022/11/02 11:11:18;;;;;;;;;;;14.30;76.70;;;;;;5096045;28;19918;-78
2022/11/02 11:13:56;;;;;;;;;;;14.40;75.00;;;;;;5102118;28;20384;-78
2022/11/02 11:16:32;;;;;;;;;;;14.30;75.20;;;;;;5097897;28;19926;-78
2022/11/02 11:18:58;;;;;;;;;;;14.20;74.30;;;;;;5093867;28;20367;-78
2022/11/02 11:21:33;;;;;;;;;;;14.20;74.10;;;;;;5102560;28;20014;-78
2022/11/02 11:24:28;;;;;;;;;;;14.40;76.10;;;;;;5097794;28;19923;-78
2022/11/02 11:27:00;;;;;;;;;;;14.40;75.60;;;;;;5083663;28;19919;-78
2022/11/02 11:29:28;;;;;;;;;;;14.60;76.00;;;;;;5096588;28;19941;-78
2022/11/02 11:31:54;;;;;;;;;;;14.70;74.10;;;;;;5089726;28;20183;-78
2022/11/02 11:34:30;;;;;;;;;;;14.60;72.90;;;;;;5104998;28;20406;-78
2022/11/02 11:37:09;;;;;;;;;;;14.40;73.50;;;;;;5100807;28;19924;-78
2022/11/02 11:39:36;;;;;;;;;;;14.60;73.90;;;;;;5094271;28;19916;-78
2022/11/02 11:42:02;;;;;;;;;;;14.40;73.00;;;;;;5099739;28;19924;-78
2022/11/02 11:44:28;;;;;;;;;;;14.20;72.60;;;;;;5100106;28;19930;-78
2022/11/02 11:46:55;;;;;;;;;;;14.40;72.60;;;;;;5079651;28;19920;-78
2022/11/02 11:49:27;;;;;;;;;;;14.60;73.90;;;;;;5099407;28;19916;-79
2022/11/02 11:51:54;;;;;;;;;;;14.90;71.80;;;;;;5095814;28;19997;-78
2022/11/02 11:54:26;;;;;;;;;;;14.80;72.40;;;;;;5095591;28;19970;-78
2022/11/02 11:56:55;;;;;;;;;;;14.80;73.80;;;;;;5099705;28;20409;-79
2022/11/02 11:59:28;;;;;;;;;;;14.60;69.90;;;;;;5100512;28;20340;-78
2022/11/02 12:01:55;;;;;;;;;;;14.70;72.10;;;;;;5094456;28;19927;-79
2022/11/02 12:04:28;;;;;;;;;;;14.80;72.50;;;;;;5094816;28;20370;-79
2022/11/02 12:07:13;;;;;;;;;;;14.40;73.00;;;;;;5094071;28;19920;-79
2022/11/02 12:10:01;;;;;;;;;;;14.40;73.50;;;;;;5094086;28;19916;-78
2022/11/02 12:12:37;;;;;;;;;;;14.50;72.00;;;;;;5086834;28;19920;-79
2022/11/02 12:15:12;;;;;;;;;;;14.60;72.40;;;;;;5094246;28;19920;-84
2022/11/02 12:17:50;;;;;;;;;;;14.70;71.90;;;;;;5088938;28;19912;-78
2022/11/02 12:20:26;;;;;;;;;;;14.70;73.00;;;;;;5103849;28;20573;-78
2022/11/02 12:23:07;;;;;;;;;;;14.80;71.50;;;;;;5097713;28;20394;-77
2022/11/02 12:25:39;;;;;;;;;;;14.60;71.10;;;;;;5089381;28;19935;-75
2022/11/02 12:28:14;;;;;;;;;;;14.60;70.10;;;;;;5103720;28;20010;-74
2022/11/02 12:30:46;;;;;;;;;;;14.60;69.80;;;;;;5092477;28;20355;-74
2022/11/02 12:33:21;;;;;;;;;;;14.70;69.40;;;;;;5092224;28;19920;-74
2022/11/02 12:36:12;;;;;;;;;;;14.70;68.90;;;;;;5097329;28;20002;-74
2022/11/02 12:38:44;;;;;;;;;;;14.70;69.90;;;;;;5056754;28;19912;-74
2022/11/02 12:41:11;;;;;;;;;;;14.60;70.60;;;;;;5091765;28;19916;-74
2022/11/02 12:43:36;;;;;;;;;;;14.70;69.80;;;;;;5100899;28;19947;-74
2022/11/02 12:46:02;;;;;;;;;;;15.00;69.30;;;;;;5086314;28;19997;-74
2022/11/02 12:48:41;;;;;;;;;;;15.20;68.80;;;;;;5093242;28;19912;-74
2022/11/02 12:51:16;;;;;;;;;;;15.30;67.90;;;;;;5090227;28;19931;-74
2022/11/02 12:53:50;;;;;;;;;;;15.20;67.40;;;;;;5098490;28;20435;-74
2022/11/02 12:56:25;;;;;;;;;;;15.20;67.30;;;;;;5102326;28;19926;-74
2022/11/02 12:58:50;;;;;;;;;;;15.10;67.40;;;;;;5099019;28;19923;-74
2022/11/02 13:01:19;;;;;;;;;;;14.80;68.40;;;;;;5093981;28;19920;-74
2022/11/02 13:04:04;;;;;;;;;;;14.60;68.80;;;;;;5095409;28;19912;-74
2022/11/02 13:06:33;;;;;;;;;;;14.50;69.60;;;;;;5088765;28;20376;-74
2022/11/02 13:09:03;;;;;;;;;;;14.60;69.00;;;;;;5094772;28;19916;-74
2022/11/02 13:11:48;;;;;;;;;;;14.50;70.50;;;;;;5096055;28;19916;-74
2022/11/02 13:14:17;;;;;;;;;;;14.40;70.10;;;;;;5091086;28;20376;-74
2022/11/02 13:16:47;;;;;;;;;;;14.10;71.10;;;;;;5097908;28;19924;-74
2022/11/02 13:19:33;;;;;;;;;;;14.00;71.70;;;;;;5101312;28;19912;-74
2022/11/02 13:21:59;;;;;;;;;;;13.70;72.20;;;;;;5095799;28;20379;-74
2022/11/02 13:24:34;;;;;;;;;;;13.60;74.00;;;;;;5089515;28;19969;-74
2022/11/02 13:27:01;;;;;;;;;;;13.50;75.50;;;;;;5081986;28;20321;-74
2022/11/02 13:29:33;;;;;;;;;;;13.50;77.50;;;;;;5097399;28;19916;-74
2022/11/02 13:32:08;;;;;;;;;;;13.60;75.60;;;;;;5092614;28;19976;-73
2022/11/02 13:34:36;;;;;;;;;;;13.60;75.00;;;;;;5095017;28;20405;-74
2022/11/02 13:37:06;;;;;;;;;;;13.70;76.90;;;;;;5097890;28;19916;-73
2022/11/02 13:39:37;;;;;;;;;;;13.70;76.30;;;;;;5097363;28;19916;-74
2022/11/02 13:42:21;;;;;;;;;;;13.50;79.20;;;;;;5101164;28;19916;-74
2022/11/02 13:44:56;;;;;;;;;;;13.60;78.30;;;;;;5099608;28;19927;-74
2022/11/02 13:47:28;;;;;;;;;;;13.50;79.40;;;;;;5091643;28;19917;-74
2022/11/02 13:49:55;;;;;;;;;;;13.50;80.50;;;;;;5104661;28;19931;-74
2022/11/02 13:52:41;;;;;;;;;;;13.70;79.00;;;;;;5079953;28;19920;-74
2022/11/02 13:55:08;;;;;;;;;;;13.70;79.80;;;;;;5088878;28;20355;-75
2022/11/02 13:57:41;;;;;;;;;;;13.70;78.00;;;;;;5102079;28;20006;-74
2022/11/02 14:00:27;;;;;;;;;;;13.50;78.40;;;;;;5087029;28;19927;-74
2022/11/02 14:02:55;;;;;;;;;;;13.40;78.30;;;;;;5084314;28;19920;-74
2022/11/02 14:05:29;;;;;;;;;;;13.40;79.00;;;;;;5089273;28;20056;-74
2022/11/02 14:07:58;;;;;;;;;;;13.60;79.20;;;;;;5091205;28;19915;-74
2022/11/02 14:10:24;;;;;;;;;;;13.80;78.40;;;;;;5082653;28;19919;-74
2022/11/02 14:12:49;;;;;;;;;;;13.90;78.00;;;;;;5085698;28;19924;-74
2022/11/02 14:15:15;;;;;;;;;;;13.90;76.30;;;;;;5095156;28;19926;-74
2022/11/02 14:18:09;;;;;;;;;;;13.80;77.80;;;;;;5093349;28;19920;-73
2022/11/02 14:20:37;;;;;;;;;;;13.80;76.10;;;;;;5081277;28;19916;-73
2022/11/02 14:23:13;;;;;;;;;;;13.80;74.70;;;;;;5067601;28;19916;-76
2022/11/02 14:25:46;;;;;;;;;;;13.70;75.30;;;;;;5095274;28;19915;-75
2022/11/02 14:28:32;;;;;;;;;;;13.60;76.10;;;;;;5091023;28;19920;-76
2022/11/02 14:31:03;;;;;;;;;;;13.60;76.20;;;;;;5087435;28;19952;-76
2022/11/02 14:33:29;;;;;;;;;;;13.50;76.50;;;;;;5094997;28;20006;-76
2022/11/02 14:35:57;;;;;;;;;;;13.40;76.60;;;;;;5097279;28;20437;-76
2022/11/02 14:38:29;;;;;;;;;;;13.20;76.60;;;;;;5092710;28;19918;-76
2022/11/02 14:41:11;;;;;;;;;;;13.00;77.40;;;;;;5096815;28;19934;-77
2022/11/02 14:43:36;;;;;;;;;;;12.80;78.10;;;;;;5099703;28;19920;-77
2022/11/02 14:46:30;;;;;;;;;;;12.70;80.70;;;;;;5094573;28;20323;-78
2022/11/02 14:48:57;;;;;;;;;;;12.70;81.80;;;;;;5091365;28;19938;-77